Time;durP1;ratioP1;P1;durP2;ratioP2;P2;SDS_P1;SDS_P2;PMS_P1;PMS_P2;Temp;Humidity;BMP_temperature;BMP_pressure;BME280_temperature;BME280_humidity;BME280_pressure;Samples;Min_cycle;Max_cycle;Signal;HPM_P1;HPM_P2
2023/05/18 00:00:28;;;;;;;;;;;;;;;17.98;58.39;102594.50;1249446;23;657;-69
2023/05/18 00:01:18;;;;;;;;;;;;;;;17.97;57.32;102586.50;1249250;23;666;-70
2023/05/18 00:02:09;;;;;;;;;;;;;;;17.98;58.30;102590.94;1249322;23;622;-69
2023/05/18 00:03:00;;;;;;;;;;;;;;;18.00;57.99;102586.31;1249342;23;638;-69
2023/05/18 00:03:53;;;;;;;;;;;;;;;17.96;57.57;102585.63;1248508;23;655;-70
2023/05/18 00:04:43;;;;;;;;;;;;;;;17.96;57.87;102584.78;1248480;23;650;-69
2023/05/18 00:05:34;;;;;;;;;;;;;;;17.92;58.11;102584.13;1249351;23;692;-69
2023/05/18 00:06:24;;;;;;;;;;;;;;;17.96;57.41;102584.78;1249426;23;689;-69
2023/05/18 00:07:15;;;;;;;;;;;;;;;17.98;57.46;102585.53;1249371;23;599;-70
2023/05/18 00:08:05;;;;;;;;;;;;;;;17.99;57.99;102584.56;1249218;23;534;-70
2023/05/18 00:08:56;;;;;;;;;;;;;;;18.00;57.56;102581.78;1249255;23;607;-70
2023/05/18 00:09:46;;;;;;;;;;;;;;;17.99;57.77;102585.44;1249357;23;655;-70
2023/05/18 00:10:37;;;;;;;;;;;;;;;17.99;57.79;102579.19;1249396;23;670;-70
2023/05/18 00:11:27;;;;;;;;;;;;;;;17.99;57.79;102582.75;1249403;23;611;-70
2023/05/18 00:12:18;;;;;;;;;;;;;;;17.99;57.84;102587.28;1248756;23;606;-70
2023/05/18 00:13:08;;;;;;;;;;;;;;;17.97;58.09;102586.50;1249156;23;765;-70
2023/05/18 00:13:58;;;;;;;;;;;;;;;17.98;57.41;102589.09;1249350;23;623;-70
2023/05/18 00:14:49;;;;;;;;;;;;;;;17.89;58.16;102586.19;1243146;23;654;-71
2023/05/18 00:15:39;;;;;;;;;;;;;;;17.86;57.44;102583.69;1244084;23;619;-71
2023/05/18 00:16:30;;;;;;;;;;;;;;;17.89;58.39;102578.97;1248540;23;604;-71
2023/05/18 00:17:20;;;;;;;;;;;;;;;17.94;58.09;102586.72;1249310;23;659;-70
2023/05/18 00:18:11;;;;;;;;;;;;;;;17.91;58.45;102589.66;1249456;23;645;-70
2023/05/18 00:19:01;;;;;;;;;;;;;;;17.85;57.94;102576.56;1249334;23;654;-70
2023/05/18 00:19:52;;;;;;;;;;;;;;;17.79;57.66;102588.63;1249349;23;607;-70
2023/05/18 00:20:42;;;;;;;;;;;;;;;17.79;58.37;102583.22;1249377;23;642;-69
2023/05/18 00:21:34;;;;;;;;;;;;;;;17.85;58.28;102582.81;1249348;23;611;-69
2023/05/18 00:22:25;;;;;;;;;;;;;;;17.86;58.17;102583.69;1248556;23;683;-70
2023/05/18 00:23:15;;;;;;;;;;;;;;;17.87;58.40;102591.69;1248544;23;654;-70
2023/05/18 00:24:06;;;;;;;;;;;;;;;17.88;57.77;102581.75;1249336;23;714;-70
2023/05/18 00:24:56;;;;;;;;;;;;;;;17.90;57.77;102585.22;1249366;23;690;-70
2023/05/18 00:25:47;;;;;;;;;;;;;;;17.87;58.21;102582.72;1249198;23;1881;-70
2023/05/18 00:26:37;;;;;;;;;;;;;;;17.86;58.42;102581.84;1248908;23;605;-70
2023/05/18 00:27:27;;;;;;;;;;;;;;;17.81;58.45;102581.28;1249414;23;666;-70
2023/05/18 00:28:18;;;;;;;;;;;;;;;17.77;58.75;102585.16;1249297;23;662;-70
2023/05/18 00:29:08;;;;;;;;;;;;;;;17.79;58.47;102585.06;1249402;23;670;-70
2023/05/18 00:29:59;;;;;;;;;;;;;;;17.81;58.68;102585.81;1249270;23;619;-70
2023/05/18 00:30:49;;;;;;;;;;;;;;;17.81;57.96;102584.00;1248447;23;657;-70
2023/05/18 00:31:40;;;;;;;;;;;;;;;17.83;58.86;102583.88;1249346;23;607;-70
2023/05/18 00:32:31;;;;;;;;;;;;;;;17.86;58.20;102586.38;1247860;23;639;-70
2023/05/18 00:33:21;;;;;;;;;;;;;;;17.79;58.44;102588.63;1249363;23;625;-70
2023/05/18 00:34:12;;;;;;;;;;;;;;;17.80;58.83;102584.09;1249184;23;599;-70
2023/05/18 00:35:02;;;;;;;;;;;;;;;17.76;57.90;102583.44;1248413;23;658;-70
2023/05/18 00:35:53;;;;;;;;;;;;;;;17.72;58.49;102581.94;1249311;23;599;-70
2023/05/18 00:36:43;;;;;;;;;;;;;;;17.74;58.09;102573.72;1249539;23;646;-70
2023/05/18 00:37:34;;;;;;;;;;;;;;;17.75;59.09;102572.75;1249308;23;603;-70
2023/05/18 00:38:24;;;;;;;;;;;;;;;17.81;58.70;102591.22;1249411;23;732;-70
2023/05/18 00:39:15;;;;;;;;;;;;;;;17.81;57.96;102589.38;1249289;23;611;-70
2023/05/18 00:40:05;;;;;;;;;;;;;;;17.83;58.28;102587.47;1249212;23;615;-70
2023/05/18 00:40:56;;;;;;;;;;;;;;;17.82;58.07;102583.03;1248856;23;610;-70
2023/05/18 00:41:46;;;;;;;;;;;;;;;17.83;58.31;102586.59;1249366;23;642;-70
2023/05/18 00:42:36;;;;;;;;;;;;;;;17.82;58.63;102585.72;1250298;23;864;-70
2023/05/18 00:43:27;;;;;;;;;;;;;;;17.83;58.65;102583.88;1249301;23;669;-70
2023/05/18 00:44:17;;;;;;;;;;;;;;;17.83;57.76;102587.47;1249164;23;986;-70
2023/05/18 00:45:08;;;;;;;;;;;;;;;17.82;58.50;102583.03;1249275;23;674;-70
2023/05/18 00:45:58;;;;;;;;;;;;;;;17.83;58.23;102589.28;1249274;23;1882;-70
2023/05/18 00:46:49;;;;;;;;;;;;;;;17.79;57.68;102590.47;1249276;23;612;-70
2023/05/18 00:47:39;;;;;;;;;;;;;;;17.80;58.09;102589.50;1249270;23;638;-70
2023/05/18 00:48:30;;;;;;;;;;;;;;;17.78;58.49;102591.41;1248452;23;616;-69
2023/05/18 00:49:20;;;;;;;;;;;;;;;17.74;57.90;102585.38;1249060;23;1070;-69
2023/05/18 00:50:11;;;;;;;;;;;;;;;17.75;58.27;102584.41;1250992;23;582;-69
2023/05/18 00:51:01;;;;;;;;;;;;;;;17.75;58.29;102583.53;1249301;23;657;-69
2023/05/18 00:51:52;;;;;;;;;;;;;;;17.75;57.98;102588.94;1250988;23;658;-69
2023/05/18 00:52:42;;;;;;;;;;;;;;;17.75;58.24;102594.31;1250973;23;618;-69
2023/05/18 00:53:33;;;;;;;;;;;;;;;17.74;58.75;102584.50;1250949;23;626;-69
2023/05/18 00:54:23;;;;;;;;;;;;;;;17.70;58.54;102583.88;1250854;23;646;-70
2023/05/18 00:55:14;;;;;;;;;;;;;;;17.71;58.42;102585.59;1251094;23;610;-69
2023/05/18 00:56:04;;;;;;;;;;;;;;;17.73;58.32;102588.19;1250782;23;673;-70
2023/05/18 00:56:55;;;;;;;;;;;;;;;17.73;57.78;102588.19;1250884;23;638;-69
2023/05/18 00:57:47;;;;;;;;;;;;;;;17.67;58.60;102590.31;1247169;23;632;-70
2023/05/18 00:58:37;;;;;;;;;;;;;;;17.64;58.23;102585.13;1251045;23;673;-70
2023/05/18 00:59:27;;;;;;;;;;;;;;;17.68;58.37;102585.81;1251127;23;615;-70
2023/05/18 01:00:19;;;;;;;;;;;;;;;17.67;57.81;102582.22;1250927;23;578;-70
2023/05/18 01:01:09;;;;;;;;;;;;;;;17.66;58.32;102582.34;1251171;23;634;-70
2023/05/18 01:02:00;;;;;;;;;;;;;;;17.67;58.11;102587.63;1251038;23;638;-69
2023/05/18 01:02:51;;;;;;;;;;;;;;;17.69;58.65;102588.41;1250883;23;633;-70
2023/05/18 01:03:42;;;;;;;;;;;;;;;17.69;58.61;102587.53;1249326;23;709;-70
2023/05/18 01:04:32;;;;;;;;;;;;;;;17.69;58.82;102587.53;1247349;23;647;-70
2023/05/18 01:05:23;;;;;;;;;;;;;;;17.68;58.91;102592.06;1247310;23;615;-70
2023/05/18 01:06:13;;;;;;;;;;;;;;;17.62;58.19;102586.16;1249722;23;638;-70
2023/05/18 01:07:05;;;;;;;;;;;;;;;17.62;58.85;102583.47;1251224;23;684;-70
2023/05/18 01:07:56;;;;;;;;;;;;;;;17.64;58.24;102590.53;1251076;23;614;-70
2023/05/18 01:08:48;;;;;;;;;;;;;;;17.58;58.69;102585.50;1247073;23;610;-70
2023/05/18 01:09:38;;;;;;;;;;;;;;;17.58;58.65;102585.50;1247586;23;542;-70
2023/05/18 01:10:29;;;;;;;;;;;;;;;17.61;58.51;102593.38;1251381;23;598;-70
2023/05/18 01:11:19;;;;;;;;;;;;;;;17.58;59.16;102579.25;1247517;23;591;-69
2023/05/18 01:12:10;;;;;;;;;;;;;;;17.59;58.91;102589.06;1251374;23;618;-70
2023/05/18 01:13:01;;;;;;;;;;;;;;;17.57;58.76;102591.84;1251432;23;653;-69
2023/05/18 01:13:51;;;;;;;;;;;;;;;17.56;58.86;102589.25;1251195;23;688;-70
2023/05/18 01:14:44;;;;;;;;;;;;;;;17.48;58.78;102589.78;1251466;23;617;-70
2023/05/18 01:15:35;;;;;;;;;;;;;;;17.53;58.48;102593.06;1246959;23;628;-69
2023/05/18 01:16:25;;;;;;;;;;;;;;;17.51;58.73;102586.91;1247394;23;789;-70
2023/05/18 01:17:16;;;;;;;;;;;;;;;17.49;59.14;102599.59;1251388;23;669;-70
2023/05/18 01:18:09;;;;;;;;;;;;;;;17.51;58.88;102591.41;1251219;23;677;-69
2023/05/18 01:18:59;;;;;;;;;;;;;;;17.54;58.51;102585.84;1251297;23;649;-69
2023/05/18 01:19:50;;;;;;;;;;;;;;;17.54;58.21;102593.91;1251423;23;649;-69
2023/05/18 01:20:41;;;;;;;;;;;;;;;17.50;58.87;102587.84;1251247;23;629;-69
2023/05/18 01:21:32;;;;;;;;;;;;;;;17.51;58.88;102583.34;1247475;23;630;-69
2023/05/18 01:22:23;;;;;;;;;;;;;;;17.52;58.90;102588.63;1247163;23;623;-70
2023/05/18 01:23:14;;;;;;;;;;;;;;;17.51;58.94;102584.19;1251489;23;657;-70
2023/05/18 01:24:04;;;;;;;;;;;;;;;17.49;58.42;102587.97;1247254;23;681;-70
2023/05/18 01:24:55;;;;;;;;;;;;;;;17.48;58.68;102595.19;1251448;23;634;-70
2023/05/18 01:25:48;;;;;;;;;;;;;;;17.48;58.96;102595.19;1246753;23;1889;-70
2023/05/18 01:26:39;;;;;;;;;;;;;;;17.47;58.62;102582.66;1251368;23;654;-70
2023/05/18 01:27:34;;;;;;;;;;;;;;;17.42;59.06;102590.19;1251336;23;634;-69
2023/05/18 01:28:25;;;;;;;;;;;;;;;17.48;59.22;102586.22;1251320;23;637;-69
2023/05/18 01:29:15;;;;;;;;;;;;;;;17.52;59.09;102591.31;1251252;23;662;-69
2023/05/18 01:30:06;;;;;;;;;;;;;;;17.51;58.59;102588.72;1251299;23;642;-69
2023/05/18 01:30:57;;;;;;;;;;;;;;;17.51;58.65;102584.19;1251138;23;618;-69
2023/05/18 01:31:47;;;;;;;;;;;;;;;17.46;58.63;102590.84;1251237;23;622;-69
2023/05/18 01:32:38;;;;;;;;;;;;;;;17.44;58.61;102590.94;1251183;23;602;-69
2023/05/18 01:33:28;;;;;;;;;;;;;;;17.46;58.76;102591.72;1251314;23;642;-69
2023/05/18 01:34:18;;;;;;;;;;;;;;;17.52;58.91;102591.31;1249518;23;618;-69
2023/05/18 01:35:09;;;;;;;;;;;;;;;17.52;58.72;102601.25;1251344;23;609;-69
2023/05/18 01:36:00;;;;;;;;;;;;;;;17.53;58.70;102592.19;1251111;23;662;-69
2023/05/18 01:36:50;;;;;;;;;;;;;;;17.53;58.46;102593.06;1249803;23;610;-69
2023/05/18 01:37:40;;;;;;;;;;;;;;;17.53;58.75;102593.06;1249682;23;610;-69
2023/05/18 01:38:31;;;;;;;;;;;;;;;17.51;58.15;102600.38;1251442;23;624;-69
2023/05/18 01:39:21;;;;;;;;;;;;;;;17.50;58.87;102597.78;1251257;23;633;-69
2023/05/18 01:40:12;;;;;;;;;;;;;;;17.43;58.65;102591.91;1246822;23;627;-69
2023/05/18 01:41:02;;;;;;;;;;;;;;;17.41;59.15;102588.44;1247207;23;595;-69
2023/05/18 01:41:52;;;;;;;;;;;;;;;17.45;58.74;102589.97;1251144;23;579;-70
2023/05/18 01:42:43;;;;;;;;;;;;;;;17.46;59.18;102596.25;1251204;23;654;-69
2023/05/18 01:43:33;;;;;;;;;;;;;;;17.41;58.93;102595.66;1251283;23;669;-70
2023/05/18 01:44:25;;;;;;;;;;;;;;;17.44;59.24;102593.66;1248824;23;682;-70
2023/05/18 01:45:15;;;;;;;;;;;;;;;17.45;59.06;102595.38;1251262;23;740;-69
2023/05/18 01:46:05;;;;;;;;;;;;;;;17.49;59.36;102596.91;1250971;23;1923;-70
2023/05/18 01:46:56;;;;;;;;;;;;;;;17.48;58.19;102595.19;1251191;23;1079;-69
2023/05/18 01:47:47;;;;;;;;;;;;;;;17.50;58.58;102598.63;1251284;23;654;-69
2023/05/18 01:48:38;;;;;;;;;;;;;;;17.50;58.85;102598.63;1247020;23;592;-70
2023/05/18 01:49:28;;;;;;;;;;;;;;;17.51;58.51;102600.38;1251080;23;1122;-70
2023/05/18 01:50:19;;;;;;;;;;;;;;;17.45;58.48;102600.78;1251453;23;654;-70
2023/05/18 01:51:09;;;;;;;;;;;;;;;17.49;58.68;102601.44;1247231;23;679;-69
2023/05/18 01:51:59;;;;;;;;;;;;;;;17.44;58.34;102604.44;1251354;23;743;-70
2023/05/18 01:52:50;;;;;;;;;;;;;;;17.43;59.20;102608.09;1251346;23;631;-70
2023/05/18 01:53:40;;;;;;;;;;;;;;;17.41;58.65;102601.94;1250625;23;641;-70
2023/05/18 01:54:31;;;;;;;;;;;;;;;17.40;58.87;102602.88;1247176;23;811;-70
2023/05/18 01:55:21;;;;;;;;;;;;;;;17.39;58.37;102601.16;1251027;23;670;-69
2023/05/18 01:56:12;;;;;;;;;;;;;;;17.42;58.83;102600.97;1251213;23;956;-70
2023/05/18 01:57:02;;;;;;;;;;;;;;;17.33;59.03;102596.19;1247255;23;608;-70
2023/05/18 01:57:53;;;;;;;;;;;;;;;17.30;58.91;102597.25;1251391;23;661;-70
2023/05/18 01:58:43;;;;;;;;;;;;;;;17.32;58.78;102599.84;1251278;23;637;-70
2023/05/18 01:59:34;;;;;;;;;;;;;;;17.31;59.21;102590.91;1251460;23;661;-70
2023/05/18 02:00:24;;;;;;;;;;;;;;;17.35;58.71;102594.25;1251241;23;637;-70
2023/05/18 02:01:18;;;;;;;;;;;;;;;17.35;58.75;102594.25;1247482;23;642;-70
2023/05/18 02:02:09;;;;;;;;;;;;;;;17.28;58.72;102599.19;1247015;23;619;-70
2023/05/18 02:02:59;;;;;;;;;;;;;;;17.30;58.97;102591.00;1247371;23;666;-70
2023/05/18 02:03:50;;;;;;;;;;;;;;;17.29;59.45;102597.34;1247150;23;619;-69
2023/05/18 02:04:40;;;;;;;;;;;;;;;17.30;58.94;102591.00;1251187;23;614;-70
2023/05/18 02:05:31;;;;;;;;;;;;;;;17.31;59.02;102595.44;1251389;23;598;-69
2023/05/18 02:06:21;;;;;;;;;;;;;;;17.29;58.74;102597.34;1251218;23;743;-69
2023/05/18 02:07:12;;;;;;;;;;;;;;;17.30;59.37;102591.88;1251434;23;638;-69
2023/05/18 02:08:02;;;;;;;;;;;;;;;17.31;59.29;102592.72;1250591;23;642;-69
2023/05/18 02:08:53;;;;;;;;;;;;;;;17.34;59.03;102597.94;1251142;23;622;-69
2023/05/18 02:09:44;;;;;;;;;;;;;;;17.37;59.19;102596.88;1251350;23;638;-69
2023/05/18 02:10:34;;;;;;;;;;;;;;;17.34;59.01;102597.94;1251236;23;630;-69
2023/05/18 02:11:25;;;;;;;;;;;;;;;17.32;59.27;102595.31;1247144;23;630;-69
2023/05/18 02:12:15;;;;;;;;;;;;;;;17.33;58.94;102586.28;1251210;23;675;-69
2023/05/18 02:13:05;;;;;;;;;;;;;;;17.33;58.80;102590.81;1251042;23;622;-68
2023/05/18 02:13:56;;;;;;;;;;;;;;;17.30;58.97;102594.56;1251206;23;634;-69
2023/05/18 02:14:46;;;;;;;;;;;;;;;17.31;59.12;102584.66;1251116;23;645;-69
2023/05/18 02:15:37;;;;;;;;;;;;;;;17.30;58.80;102588.31;1251086;23;617;-69
2023/05/18 02:16:27;;;;;;;;;;;;;;;17.26;58.98;102590.31;1251131;23;696;-69
2023/05/18 02:17:18;;;;;;;;;;;;;;;17.26;58.90;102589.47;1251367;23;590;-69
2023/05/18 02:18:08;;;;;;;;;;;;;;;17.21;58.92;102594.28;1246960;23;651;-70
2023/05/18 02:18:59;;;;;;;;;;;;;;;17.20;59.51;102590.72;1251378;23;590;-69
2023/05/18 02:19:49;;;;;;;;;;;;;;;17.23;58.91;102592.34;1251252;23;626;-69
2023/05/18 02:20:40;;;;;;;;;;;;;;;17.23;59.62;102595.03;1251396;23;612;-69
2023/05/18 02:21:33;;;;;;;;;;;;;;;17.24;59.19;102602.16;1250946;23;633;-69
2023/05/18 02:22:23;;;;;;;;;;;;;;;17.21;59.08;102591.59;1246910;23;675;-69
2023/05/18 02:23:14;;;;;;;;;;;;;;;17.24;58.92;102596.78;1251281;23;649;-69
2023/05/18 02:24:05;;;;;;;;;;;;;;;17.26;59.17;102593.03;1249640;23;662;-69
2023/05/18 02:24:55;;;;;;;;;;;;;;;17.26;59.12;102589.47;1251054;23;712;-69
2023/05/18 02:25:46;;;;;;;;;;;;;;;17.22;59.01;102596.00;1251298;23;1944;-69
2023/05/18 02:26:36;;;;;;;;;;;;;;;17.22;59.22;102598.69;1251224;23;710;-69
2023/05/18 02:27:27;;;;;;;;;;;;;;;17.22;58.80;102596.88;1251299;23;631;-69
2023/05/18 02:28:17;;;;;;;;;;;;;;;17.22;58.99;102599.56;1247283;23;614;-69
2023/05/18 02:29:10;;;;;;;;;;;;;;;17.17;59.00;102595.47;1251337;23;646;-69
2023/05/18 02:30:03;;;;;;;;;;;;;;;17.17;59.62;102598.16;1251379;23;618;-69
2023/05/18 02:30:53;;;;;;;;;;;;;;;17.18;59.30;102598.06;1251131;23;602;-69
2023/05/18 02:31:43;;;;;;;;;;;;;;;17.19;59.27;102596.25;1251055;23;603;-69
2023/05/18 02:32:37;;;;;;;;;;;;;;;17.21;59.25;102599.66;1248630;23;619;-69
2023/05/18 02:33:29;;;;;;;;;;;;;;;17.23;58.89;102598.59;1251278;23;665;-69
2023/05/18 02:34:20;;;;;;;;;;;;;;;17.23;59.01;102592.34;1247005;23;646;-69
2023/05/18 02:35:11;;;;;;;;;;;;;;;17.19;59.12;102591.72;1251319;23;614;-69
2023/05/18 02:36:02;;;;;;;;;;;;;;;17.20;58.74;102590.72;1251082;23;677;-69
2023/05/18 02:36:56;;;;;;;;;;;;;;;17.21;59.37;102587.06;1246608;23;686;-69
2023/05/18 02:37:48;;;;;;;;;;;;;;;17.21;59.28;102596.97;1251102;23;661;-69
2023/05/18 02:38:39;;;;;;;;;;;;;;;17.23;58.93;102595.03;1246988;23;650;-69
2023/05/18 02:39:30;;;;;;;;;;;;;;;17.23;58.82;102585.13;1247328;23;631;-69
2023/05/18 02:40:21;;;;;;;;;;;;;;;17.19;58.91;102593.53;1251167;23;645;-69
2023/05/18 02:41:11;;;;;;;;;;;;;;;17.15;59.61;102594.69;1251189;23;623;-69
2023/05/18 02:42:02;;;;;;;;;;;;;;;17.16;59.49;102589.22;1249498;23;642;-69
2023/05/18 02:42:52;;;;;;;;;;;;;;;17.15;59.01;102592.00;1251182;23;705;-69
2023/05/18 02:43:42;;;;;;;;;;;;;;;17.19;59.18;102590.84;1250930;23;637;-69
2023/05/18 02:44:33;;;;;;;;;;;;;;;17.20;58.95;102596.09;1249488;23;591;-69
2023/05/18 02:45:23;;;;;;;;;;;;;;;17.21;59.15;102588.88;1251048;23;661;-69
2023/05/18 02:46:14;;;;;;;;;;;;;;;17.21;59.04;102591.59;1251229;23;1885;-69
2023/05/18 02:47:05;;;;;;;;;;;;;;;17.22;58.89;102588.78;1251028;23;610;-69
2023/05/18 02:47:55;;;;;;;;;;;;;;;17.20;58.66;102596.09;1251033;23;634;-69
2023/05/18 02:48:46;;;;;;;;;;;;;;;17.19;59.40;102591.72;1251387;23;680;-69
2023/05/18 02:49:36;;;;;;;;;;;;;;;17.19;58.92;102590.84;1247226;23;655;-69
2023/05/18 02:50:26;;;;;;;;;;;;;;;17.20;58.77;102595.25;1250976;23;642;-69
2023/05/18 02:51:17;;;;;;;;;;;;;;;17.21;58.44;102596.97;1251269;23;681;-69
2023/05/18 02:52:07;;;;;;;;;;;;;;;17.21;59.31;102586.19;1247006;23;630;-69
2023/05/18 02:52:58;;;;;;;;;;;;;;;17.17;59.18;102590.94;1251345;23;626;-69
2023/05/18 02:53:48;;;;;;;;;;;;;;;17.14;59.39;102593.81;1251130;23;626;-70
2023/05/18 02:54:39;;;;;;;;;;;;;;;17.15;59.20;102598.25;1251163;23;634;-69
2023/05/18 02:55:29;;;;;;;;;;;;;;;17.17;59.20;102599.03;1247071;23;619;-70
2023/05/18 02:56:20;;;;;;;;;;;;;;;17.18;59.55;102597.19;1249437;23;677;-69
2023/05/18 02:57:10;;;;;;;;;;;;;;;17.12;59.14;102597.59;1247048;23;663;-69
2023/05/18 02:58:01;;;;;;;;;;;;;;;17.14;58.93;102603.75;1251286;23;657;-69
2023/05/18 02:58:56;;;;;;;;;;;;;;;17.13;59.30;102592.09;1251083;23;657;-69
2023/05/18 02:59:46;;;;;;;;;;;;;;;17.14;59.28;102590.28;1250954;23;641;-69
2023/05/18 03:00:37;;;;;;;;;;;;;;;17.14;59.30;102595.66;1251396;23;622;-69
2023/05/18 03:01:27;;;;;;;;;;;;;;;17.12;58.99;102593.06;1251127;23;653;-69
2023/05/18 03:02:18;;;;;;;;;;;;;;;17.16;59.02;102588.34;1251270;23;598;-69
2023/05/18 03:03:09;;;;;;;;;;;;;;;17.15;59.07;102592.88;1251095;23;566;-69
2023/05/18 03:04:00;;;;;;;;;;;;;;;17.12;58.88;102592.19;1250973;23;661;-69
2023/05/18 03:04:52;;;;;;;;;;;;;;;17.12;58.93;102593.06;1251160;23;694;-69
2023/05/18 03:05:43;;;;;;;;;;;;;;;17.09;59.50;102595.09;1246979;23;791;-69
2023/05/18 03:06:34;;;;;;;;;;;;;;;17.08;59.27;102590.66;1251232;23;645;-69
2023/05/18 03:07:26;;;;;;;;;;;;;;;17.06;59.30;102589.88;1246928;23;642;-69
2023/05/18 03:08:17;;;;;;;;;;;;;;;17.06;59.75;102592.56;1246993;23;697;-69
2023/05/18 03:09:07;;;;;;;;;;;;;;;17.04;59.52;102589.13;1251104;23;673;-69
2023/05/18 03:09:57;;;;;;;;;;;;;;;17.00;59.76;102586.66;1250964;23;617;-69
2023/05/18 03:10:48;;;;;;;;;;;;;;;16.99;59.98;102590.31;1251154;23;629;-69
2023/05/18 03:11:39;;;;;;;;;;;;;;;16.99;59.73;102586.75;1247387;23;630;-69
2023/05/18 03:12:29;;;;;;;;;;;;;;;17.02;59.54;102596.47;1247731;23;634;-69
2023/05/18 03:13:20;;;;;;;;;;;;;;;16.99;59.95;102592.13;1247643;23;732;-69
2023/05/18 03:14:10;;;;;;;;;;;;;;;17.02;59.67;102593.75;1251045;23;645;-69
2023/05/18 03:15:01;;;;;;;;;;;;;;;17.00;59.97;102588.47;1251041;23;677;-68
2023/05/18 03:15:51;;;;;;;;;;;;;;;16.99;59.81;102593.00;1251115;23;641;-68
2023/05/18 03:16:41;;;;;;;;;;;;;;;17.00;59.89;102597.41;1247431;23;674;-68
2023/05/18 03:17:32;;;;;;;;;;;;;;;16.98;59.54;102591.25;1251256;23;606;-68
2023/05/18 03:18:24;;;;;;;;;;;;;;;16.97;59.95;102592.22;1251059;23;669;-68
2023/05/18 03:19:14;;;;;;;;;;;;;;;16.97;59.89;102589.53;1251088;23;642;-68
2023/05/18 03:20:05;;;;;;;;;;;;;;;17.00;59.84;102589.34;1251244;23;665;-68
2023/05/18 03:21:00;;;;;;;;;;;;;;;17.03;59.80;102590.94;1246777;23;647;-68
2023/05/18 03:21:51;;;;;;;;;;;;;;;17.06;59.89;102589.88;1246824;23;631;-68
2023/05/18 03:22:41;;;;;;;;;;;;;;;17.04;59.77;102589.13;1251159;23;586;-69
2023/05/18 03:23:32;;;;;;;;;;;;;;;17.02;59.64;102591.06;1251017;23;689;-69
2023/05/18 03:24:25;;;;;;;;;;;;;;;16.98;59.85;102585.88;1251257;23;657;-69
2023/05/18 03:25:15;;;;;;;;;;;;;;;16.96;59.72;102587.78;1251114;23;669;-68
2023/05/18 03:26:10;;;;;;;;;;;;;;;16.97;59.78;102588.66;1250938;23;1941;-69
2023/05/18 03:27:01;;;;;;;;;;;;;;;16.93;59.75;102585.31;1251044;23;660;-69
2023/05/18 03:27:52;;;;;;;;;;;;;;;16.92;60.01;102588.94;1251203;23;670;-69
2023/05/18 03:28:42;;;;;;;;;;;;;;;16.94;60.21;102591.56;1246844;23;626;-69
2023/05/18 03:29:35;;;;;;;;;;;;;;;16.95;59.59;102590.59;1251129;23;688;-69
2023/05/18 03:30:26;;;;;;;;;;;;;;;16.98;59.48;102593.09;1247231;23;626;-69
2023/05/18 03:31:16;;;;;;;;;;;;;;;16.96;60.09;102587.78;1246913;23;662;-68
2023/05/18 03:32:06;;;;;;;;;;;;;;;16.93;59.60;102596.06;1250946;23;621;-70
2023/05/18 03:32:58;;;;;;;;;;;;;;;16.94;60.22;102591.56;1246862;23;678;-68
2023/05/18 03:33:48;;;;;;;;;;;;;;;16.97;59.76;102589.53;1247057;23;619;-69
2023/05/18 03:34:39;;;;;;;;;;;;;;;17.00;60.32;102594.72;1250994;23;662;-69
2023/05/18 03:35:29;;;;;;;;;;;;;;;17.04;58.67;102597.19;1251202;23;638;-69
2023/05/18 03:36:21;;;;;;;;;;;;;;;17.05;58.95;102597.09;1250904;23;638;-68
2023/05/18 03:37:11;;;;;;;;;;;;;;;17.05;59.13;102599.78;1246905;23;658;-69
2023/05/18 03:38:02;;;;;;;;;;;;;;;17.05;60.01;102590.84;1251302;23;614;-68
2023/05/18 03:38:52;;;;;;;;;;;;;;;17.02;59.89;102590.06;1251017;23;657;-68
2023/05/18 03:39:43;;;;;;;;;;;;;;;16.99;59.80;102593.00;1250924;23;689;-68
2023/05/18 03:40:33;;;;;;;;;;;;;;;16.96;59.69;102589.63;1246814;23;654;-68
2023/05/18 03:41:23;;;;;;;;;;;;;;;16.95;59.81;102594.16;1251009;23;641;-68
2023/05/18 03:42:14;;;;;;;;;;;;;;;16.89;60.13;102597.22;1251179;23;731;-68
2023/05/18 03:43:05;;;;;;;;;;;;;;;16.88;59.87;102594.63;1247001;23;689;-68
2023/05/18 03:43:55;;;;;;;;;;;;;;;16.89;59.98;102596.34;1246891;23;675;-68
2023/05/18 03:44:46;;;;;;;;;;;;;;;16.95;60.07;102593.28;1250961;23;677;-68
2023/05/18 03:45:36;;;;;;;;;;;;;;;17.00;60.03;102591.16;1251144;23;627;-68
2023/05/18 03:46:26;;;;;;;;;;;;;;;17.04;59.67;102589.13;1247291;23;694;-68
2023/05/18 03:47:17;;;;;;;;;;;;;;;17.04;59.62;102594.50;1251276;23;623;-68
2023/05/18 03:48:08;;;;;;;;;;;;;;;16.99;59.66;102598.38;1250877;23;685;-68
2023/05/18 03:48:58;;;;;;;;;;;;;;;16.93;59.83;102592.50;1251081;23;849;-68
2023/05/18 03:49:48;;;;;;;;;;;;;;;16.91;60.15;102603.38;1250460;23;610;-68
2023/05/18 03:50:39;;;;;;;;;;;;;;;16.85;60.57;102595.69;1251320;23;630;-69
2023/05/18 03:51:30;;;;;;;;;;;;;;;16.88;60.17;102594.63;1247429;23;662;-68
2023/05/18 03:52:21;;;;;;;;;;;;;;;16.90;59.94;102598.94;1247309;23;618;-68
2023/05/18 03:53:12;;;;;;;;;;;;;;;16.89;60.31;102593.66;1247362;23;619;-68
2023/05/18 03:54:02;;;;;;;;;;;;;;;16.90;59.99;102601.66;1247615;23;603;-71
2023/05/18 03:54:53;;;;;;;;;;;;;;;16.92;59.26;102594.34;1250825;23;645;-69
2023/05/18 03:55:43;;;;;;;;;;;;;;;16.97;58.96;102597.59;1251218;23;646;-69
2023/05/18 03:56:33;;;;;;;;;;;;;;;16.95;58.67;102596.84;1250994;23;630;-69
2023/05/18 03:57:24;;;;;;;;;;;;;;;16.93;59.15;102597.91;1251169;23;661;-69
2023/05/18 03:58:14;;;;;;;;;;;;;;;16.89;58.91;102605.31;1250372;23;688;-69
2023/05/18 03:59:05;;;;;;;;;;;;;;;16.90;59.31;102598.94;1250960;23;618;-70
2023/05/18 03:59:55;;;;;;;;;;;;;;;16.88;58.90;102603.56;1250665;23;684;-70
2023/05/18 04:00:46;;;;;;;;;;;;;;;16.90;59.14;102600.78;1246378;23;663;-69
2023/05/18 04:01:36;;;;;;;;;;;;;;;16.86;58.59;102602.78;1250809;23;673;-69
2023/05/18 04:02:27;;;;;;;;;;;;;;;16.89;58.85;102605.31;1250802;23;645;-69
2023/05/18 04:03:17;;;;;;;;;;;;;;;16.91;58.63;102605.22;1250724;23;637;-69
2023/05/18 04:04:08;;;;;;;;;;;;;;;16.92;58.97;102602.41;1250299;23;618;-70
2023/05/18 04:04:58;;;;;;;;;;;;;;;16.89;58.65;102605.31;1250811;23;662;-70
2023/05/18 04:05:49;;;;;;;;;;;;;;;16.90;58.80;102603.47;1250671;23;1988;-69
2023/05/18 04:06:39;;;;;;;;;;;;;;;16.85;58.25;102603.75;1250933;23;618;-69
2023/05/18 04:07:29;;;;;;;;;;;;;;;16.85;58.93;102608.28;1250719;23;630;-70
2023/05/18 04:08:24;;;;;;;;;;;;;;;16.85;58.53;102602.88;1250282;23;622;-70
2023/05/18 04:09:16;;;;;;;;;;;;;;;16.85;58.94;102608.28;1250701;23;626;-68
2023/05/18 04:10:06;;;;;;;;;;;;;;;16.84;58.67;102609.28;1250747;23;603;-68
2023/05/18 04:10:56;;;;;;;;;;;;;;;16.82;58.82;102612.06;1246838;23;631;-69
2023/05/18 04:11:47;;;;;;;;;;;;;;;16.81;58.40;102612.16;1250933;23;645;-69
2023/05/18 04:12:37;;;;;;;;;;;;;;;16.80;58.28;102608.59;1250711;23;642;-69
2023/05/18 04:13:28;;;;;;;;;;;;;;;16.82;58.81;102612.06;1246452;23;623;-68
2023/05/18 04:14:19;;;;;;;;;;;;;;;16.86;58.42;102612.69;1250729;23;634;-68
2023/05/18 04:15:13;;;;;;;;;;;;;;;16.85;58.73;102610.97;1249029;23;622;-68
2023/05/18 04:16:03;;;;;;;;;;;;;;;16.82;58.21;102605.81;1250870;23;614;-68
2023/05/18 04:16:55;;;;;;;;;;;;;;;16.82;58.54;102613.88;1250799;23;638;-68
2023/05/18 04:17:45;;;;;;;;;;;;;;;16.78;58.68;102613.19;1250631;23;669;-68
2023/05/18 04:18:36;;;;;;;;;;;;;;;16.75;58.66;102610.69;1250045;23;630;-69
2023/05/18 04:19:27;;;;;;;;;;;;;;;16.79;58.70;102616.75;1250675;23;641;-69
2023/05/18 04:20:18;;;;;;;;;;;;;;;16.79;58.69;102620.31;1246466;23;642;-68
2023/05/18 04:21:08;;;;;;;;;;;;;;;16.80;58.21;102613.09;1250671;23;622;-68
2023/05/18 04:21:58;;;;;;;;;;;;;;;16.79;58.63;102616.75;1250676;23;669;-68
2023/05/18 04:22:49;;;;;;;;;;;;;;;16.81;58.42;102621.09;1250874;23;622;-68
2023/05/18 04:23:39;;;;;;;;;;;;;;;16.81;58.13;102615.72;1250774;23;634;-68
2023/05/18 04:24:31;;;;;;;;;;;;;;;16.79;58.03;102622.16;1249053;23;639;-69
2023/05/18 04:25:25;;;;;;;;;;;;;;;16.79;57.93;102619.44;1250570;23;649;-69
2023/05/18 04:26:18;;;;;;;;;;;;;;;16.77;58.42;102619.53;1250833;23;1917;-69
2023/05/18 04:27:09;;;;;;;;;;;;;;;16.74;58.39;102621.56;1250559;23;645;-69
2023/05/18 04:27:59;;;;;;;;;;;;;;;16.71;58.23;102619.91;1246543;23;627;-69